Flight Track Log - Related Links

Times and Time Zones

All times are in EDT time to prevent confusion due to time zone crossing. See the ASQ4577 flight status page for this flight to view local times or setup timezone preferences in your user account.

Time Position Orientation Groundspeed Altitude Reporting Facility
EDT Latitude Longitude Course Direction KTS MPH feet Rate Location/Type
Wed 05:54:56 PM 42.9500 -87.8667 79° East 172 198 1,400  Level KMKE
Wed 05:55:23 PM 42.9528 -87.8472 79° East 173 199 2,200 1,820 Climbing Chicago Center
Wed 05:56:25 PM 42.9542 -87.7689 89° East 198 228 4,100 1,887 Climbing Chicago Center
Wed 05:57:27 PM 42.9536 -87.6775 90° East 232 267 6,100 1,790 Climbing Chicago Center
Wed 05:58:29 PM 42.9583 -87.5733 86° East 269 310 7,800 1,742 Climbing Chicago Center
Wed 05:59:31 PM 42.9611 -87.4597 88° East 295 339 9,700 1,694 Climbing Chicago Center
Wed 06:00:33 PM 42.9594 -87.3253 91° East 320 368 11,300 1,258 Climbing Chicago Center
Wed 06:01:35 PM 42.9514 -87.1925 95° East 351 404 12,300 1,065 Climbing Chicago Center
Wed 06:02:37 PM 42.9453 -87.0522 93° East 369 425 13,500 1,200 Climbing Chicago Center
Wed 06:03:40 PM 42.9411 -86.9078 92° East 379 436 14,800 1,344 Climbing Chicago Center
Wed 06:04:42 PM 42.9386 -86.7331 91° East 387 445 16,300 1,306 Climbing Chicago Center
Wed 06:05:44 PM 42.9406 -86.5869 89° East 387 445 17,500 1,258 Climbing Chicago Center
Wed 06:06:46 PM 42.9419 -86.4389 89° East 390 449 18,900 1,306 Climbing Chicago Center
Wed 06:07:48 PM 42.9433 -86.2900 89° East 395 455 20,200 1,210 Climbing Chicago Center
Wed 06:08:50 PM 42.9469 -86.1378 88° East 403 464 21,400 1,306 Climbing Chicago Center
Wed 06:09:52 PM 42.9389 -85.9603 93° East 405 466 22,900 1,306 Climbing Chicago Center
Wed 06:10:54 PM 42.9083 -85.8183 106° East 399 459 24,100 1,008 Climbing Chicago Center
Wed 06:11:57 PM 42.8775 -85.6742 106° East 399 459 25,000 432 Climbing Chicago Center
Wed 06:12:59 PM 42.8447 -85.5228 106° East 416 479 25,000  Level Chicago Center
Wed 06:14:01 PM 42.8044 -85.3317 106° East 437 503 25,000  Level Chicago Center
Wed 06:15:03 PM 42.7675 -85.1669 107° East 452 520 25,000  Level Chicago Center
Wed 06:16:05 PM 42.7319 -85.0047 107° East 451 519 25,000  Level Chicago Center
Wed 06:17:07 PM 42.6953 -84.8411 107° East 454 522 25,000  Level Chicago Center
Wed 06:18:09 PM 42.6600 -84.6786 106° East 452 520 25,000  Level Chicago Center
Wed 06:19:11 PM 42.6233 -84.5175 107° East 448 516 25,000  Level Chicago Center
Wed 06:20:14 PM 42.5789 -84.3228 107° East 451 519 25,000 -149 Level Chicago Center
Wed 06:21:12 PM 42.5400 -84.1650 108° East 451 519 24,700 -508 Descending Cleveland Center
Wed 06:22:12 PM 42.5031 -84.0025 107° East 451 519 24,000 -350 Descending Cleveland Center
Wed 06:23:12 PM 42.4678 -83.8542 108° East 440 506 24,000  Level Cleveland Center
Wed 06:24:12 PM 42.4325 -83.7058 108° East 417 480 24,000  Level Cleveland Center
Wed 06:25:12 PM 42.4019 -83.5947 110° East 412 474 24,000  Level Cleveland Center
Wed 06:26:12 PM 42.3069 -83.4836 139° Southeast 393 452 24,000 -200 Level Cleveland Center
Wed 06:27:12 PM 42.2117 -83.3697 138° Southeast 407 468 23,600 -950 Descending Cleveland Center
Wed 06:28:12 PM 42.1244 -83.2653 138° Southeast 427 491 22,100 -1,450 Descending Cleveland Center
Wed 06:29:12 PM 42.0472 -83.1781 140° Southeast 422 486 20,700 -1,550 Descending Cleveland Center
Wed 06:30:12 PM 42.0025 -83.0364 113° Southeast 404 465 19,000 -1,850 Descending Cleveland Center
Wed 06:31:12 PM 41.9892 -82.8794 96° East 396 456 17,000 -1,900 Descending Cleveland Center
Wed 06:32:12 PM 41.9756 -82.7197 96° East 408 470 15,200 -1,600 Descending Cleveland Center
Wed 06:33:12 PM 41.9575 -82.5656 99° East 414 476 13,800 -1,235 Descending Cleveland Center
Wed 06:33:54 PM 41.9319 -82.4756 111° Southeast 319 367 13,100 -800 Descending Cleveland Center
Wed 06:34:12 PM 41.9261 -82.4475 106° East 378 435 13,000 -1,180 Descending Cleveland Center
Wed 06:34:55 PM 41.8981 -82.3686 116° Southeast 300 345 11,900 -1,300 Descending Cleveland Center
Wed 06:35:12 PM 41.8944 -82.3433 101° East 333 383 11,700 -1,964 Descending Cleveland Center
Wed 06:35:50 PM 41.8683 -82.2700 116° Southeast 307 353 10,100 -1,700 Descending Cleveland Center
Wed 06:36:12 PM 41.8644 -82.2478 103° East 305 351 10,000 -73 Descending Cleveland Center
Wed 06:37:12 PM 41.8181 -82.1461 121° Southeast 293 337 10,000 -242 Level Cleveland Center
Wed 06:37:51 PM 41.7728 -82.1033 145° Southeast 274 315 9,600 -700 Descending Cleveland Center
Wed 06:38:12 PM 41.7564 -82.0806 134° Southeast 281 323 9,300 -1,164 Descending Cleveland Center
Wed 06:38:58 PM 41.7008 -82.0267 144° Southeast 280 322 8,300 -1,320 Descending Cleveland Center
Wed 06:39:52 PM 41.6492 -81.9753 143° Southeast 277 319 7,100 -1,054 Descending Cleveland Center
Wed 06:40:12 PM 41.6328 -81.9583 142° Southeast 281 323 7,000 -98 Descending Cleveland Center
Wed 06:40:53 PM 41.6003 -81.8881 122° Southeast 295 339 7,000  Level Cleveland Center
Wed 06:41:12 PM 41.5881 -81.8631 123° Southeast 269 310 7,000  Level Cleveland Center
Wed 06:41:54 PM 41.5617 -81.7903 116° Southeast 292 336 7,000  Level Cleveland Center
Wed 06:42:12 PM 41.5558 -81.7597 104° East 287 330 7,000 -692 Level Cleveland Center
Wed 06:43:12 PM 41.5900 -81.6714 63° Northeast 253 291 6,100 -936 Descending Cleveland Center
Wed 06:44:01 PM 41.5547 -81.6569 163° South 165 190 5,300 -1,086 Descending Cleveland Center
Wed 06:45:08 PM 41.5125 -81.6950 214° Southwest 173 199 4,000 -1,190 Descending Cleveland Center
Wed 06:46:02 PM 41.4850 -81.7389 230° Southwest 161 185 2,900 -1,043 Descending Cleveland Center
Wed 06:47:03 PM 41.4597 -81.7800 231° Southwest 137 158 2,000 -689 Descending Cleveland Center
Wed 06:48:04 PM 41.4364 -81.8128 226° Southwest 125 144 1,500 -492 Descending Cleveland Center

Login

Don't have an account? Register now (free) for customized features, flight alerts, and more!